sensor_id;sensor_type;location;lat;lon;timestamp;P1;durP1;ratioP1;P2;durP2;ratioP2
36415;SDS011;22447;44.530;18.620;2023-01-01T00:01:07;392.10;;;193.27;;
36415;SDS011;22447;44.530;18.620;2023-01-01T00:03:37;341.45;;;173.55;;
36415;SDS011;22447;44.530;18.620;2023-01-01T00:06:05;320.25;;;156.07;;
36415;SDS011;22447;44.530;18.620;2023-01-01T00:08:35;348.70;;;171.95;;
36415;SDS011;22447;44.530;18.620;2023-01-01T00:14:46;409.50;;;195.32;;
36415;SDS011;22447;44.530;18.620;2023-01-01T00:20:34;414.98;;;209.15;;
36415;SDS011;22447;44.530;18.620;2023-01-01T00:23:13;463.95;;;230.57;;
36415;SDS011;22447;44.530;18.620;2023-01-01T00:25:39;461.67;;;235.77;;
36415;SDS011;22447;44.530;18.620;2023-01-01T00:28:06;445.80;;;232.90;;
36415;SDS011;22447;44.530;18.620;2023-01-01T00:30:38;419.15;;;210.05;;
36415;SDS011;22447;44.530;18.620;2023-01-01T00:34:33;394.25;;;201.15;;
36415;SDS011;22447;44.530;18.620;2023-01-01T00:37:03;374.40;;;190.85;;
36415;SDS011;22447;44.530;18.620;2023-01-01T00:39:32;414.80;;;213.70;;
36415;SDS011;22447;44.530;18.620;2023-01-01T00:42:04;379.25;;;195.25;;
36415;SDS011;22447;44.530;18.620;2023-01-01T00:44:36;373.98;;;191.75;;
36415;SDS011;22447;44.530;18.620;2023-01-01T00:47:02;441.10;;;220.85;;
36415;SDS011;22447;44.530;18.620;2023-01-01T00:49:36;379.02;;;196.13;;
36415;SDS011;22447;44.530;18.620;2023-01-01T00:52:02;352.25;;;174.35;;
36415;SDS011;22447;44.530;18.620;2023-01-01T00:54:28;349.65;;;175.63;;
36415;SDS011;22447;44.530;18.620;2023-01-01T00:56:55;359.05;;;185.63;;
36415;SDS011;22447;44.530;18.620;2023-01-01T00:59:25;363.92;;;183.75;;
36415;SDS011;22447;44.530;18.620;2023-01-01T01:01:53;359.38;;;179.30;;
36415;SDS011;22447;44.530;18.620;2023-01-01T01:04:24;307.48;;;158.23;;
36415;SDS011;22447;44.530;18.620;2023-01-01T01:06:50;346.73;;;170.30;;
36415;SDS011;22447;44.530;18.620;2023-01-01T01:09:17;348.77;;;177.85;;
36415;SDS011;22447;44.530;18.620;2023-01-01T01:11:43;347.33;;;170.60;;
36415;SDS011;22447;44.530;18.620;2023-01-01T01:14:14;336.35;;;163.05;;
36415;SDS011;22447;44.530;18.620;2023-01-01T01:17:13;336.42;;;166.57;;
36415;SDS011;22447;44.530;18.620;2023-01-01T01:23:34;369.55;;;178.90;;
36415;SDS011;22447;44.530;18.620;2023-01-01T01:26:18;372.20;;;181.10;;
36415;SDS011;22447;44.530;18.620;2023-01-01T01:28:50;368.23;;;176.05;;
36415;SDS011;22447;44.530;18.620;2023-01-01T01:31:23;357.77;;;173.70;;
36415;SDS011;22447;44.530;18.620;2023-01-01T01:33:54;317.92;;;154.05;;
36415;SDS011;22447;44.530;18.620;2023-01-01T01:37:16;322.83;;;161.00;;
36415;SDS011;22447;44.530;18.620;2023-01-01T01:40:13;347.25;;;165.48;;
36415;SDS011;22447;44.530;18.620;2023-01-01T01:43:24;356.40;;;171.95;;
36415;SDS011;22447;44.530;18.620;2023-01-01T01:47:01;349.02;;;163.38;;
36415;SDS011;22447;44.530;18.620;2023-01-01T01:54:51;344.92;;;165.27;;
36415;SDS011;22447;44.530;18.620;2023-01-01T01:57:23;329.33;;;161.23;;
36415;SDS011;22447;44.530;18.620;2023-01-01T01:59:52;321.20;;;161.23;;
36415;SDS011;22447;44.530;18.620;2023-01-01T02:02:24;349.20;;;172.57;;
36415;SDS011;22447;44.530;18.620;2023-01-01T02:05:24;374.02;;;184.30;;
36415;SDS011;22447;44.530;18.620;2023-01-01T02:07:51;379.85;;;194.07;;
36415;SDS011;22447;44.530;18.620;2023-01-01T02:10:19;440.25;;;216.23;;
36415;SDS011;22447;44.530;18.620;2023-01-01T02:12:56;455.35;;;228.40;;
36415;SDS011;22447;44.530;18.620;2023-01-01T02:16:36;393.00;;;200.45;;
36415;SDS011;22447;44.530;18.620;2023-01-01T02:27:17;380.63;;;177.77;;
36415;SDS011;22447;44.530;18.620;2023-01-01T02:30:18;377.73;;;184.70;;
36415;SDS011;22447;44.530;18.620;2023-01-01T02:41:04;328.70;;;162.25;;
36415;SDS011;22447;44.530;18.620;2023-01-01T02:43:36;395.65;;;190.60;;
36415;SDS011;22447;44.530;18.620;2023-01-01T02:46:07;440.55;;;211.38;;
36415;SDS011;22447;44.530;18.620;2023-01-01T02:48:43;400.58;;;189.57;;
36415;SDS011;22447;44.530;18.620;2023-01-01T02:51:22;356.80;;;170.23;;
36415;SDS011;22447;44.530;18.620;2023-01-01T02:58:09;453.85;;;198.38;;
36415;SDS011;22447;44.530;18.620;2023-01-01T03:01:11;474.67;;;204.38;;
36415;SDS011;22447;44.530;18.620;2023-01-01T03:10:44;334.48;;;156.20;;
36415;SDS011;22447;44.530;18.620;2023-01-01T03:20:00;451.85;;;190.90;;
36415;SDS011;22447;44.530;18.620;2023-01-01T03:22:31;408.42;;;182.88;;
36415;SDS011;22447;44.530;18.620;2023-01-01T03:25:04;343.87;;;161.77;;
36415;SDS011;22447;44.530;18.620;2023-01-01T03:28:13;341.75;;;161.70;;
36415;SDS011;22447;44.530;18.620;2023-01-01T03:30:52;417.00;;;180.70;;
36415;SDS011;22447;44.530;18.620;2023-01-01T03:39:37;569.33;;;229.27;;
36415;SDS011;22447;44.530;18.620;2023-01-01T03:42:16;533.03;;;216.13;;
36415;SDS011;22447;44.530;18.620;2023-01-01T03:45:16;602.13;;;249.68;;
36415;SDS011;22447;44.530;18.620;2023-01-01T03:47:55;528.95;;;220.95;;
36415;SDS011;22447;44.530;18.620;2023-01-01T03:50:27;410.65;;;174.10;;
36415;SDS011;22447;44.530;18.620;2023-01-01T03:54:42;434.27;;;179.25;;
36415;SDS011;22447;44.530;18.620;2023-01-01T03:57:45;427.45;;;172.13;;
36415;SDS011;22447;44.530;18.620;2023-01-01T04:04:03;383.48;;;168.10;;
36415;SDS011;22447;44.530;18.620;2023-01-01T04:06:31;392.88;;;169.43;;
36415;SDS011;22447;44.530;18.620;2023-01-01T04:09:10;284.52;;;130.70;;
36415;SDS011;22447;44.530;18.620;2023-01-01T04:11:41;289.83;;;131.73;;
36415;SDS011;22447;44.530;18.620;2023-01-01T04:14:39;313.25;;;136.48;;
36415;SDS011;22447;44.530;18.620;2023-01-01T04:17:07;290.10;;;136.82;;
36415;SDS011;22447;44.530;18.620;2023-01-01T04:19:36;297.40;;;132.25;;
36415;SDS011;22447;44.530;18.620;2023-01-01T04:22:03;306.15;;;131.80;;
36415;SDS011;22447;44.530;18.620;2023-01-01T04:28:42;314.50;;;142.18;;
36415;SDS011;22447;44.530;18.620;2023-01-01T04:31:09;385.38;;;162.18;;
36415;SDS011;22447;44.530;18.620;2023-01-01T04:33:35;404.50;;;176.57;;
36415;SDS011;22447;44.530;18.620;2023-01-01T04:39:24;374.58;;;168.20;;
36415;SDS011;22447;44.530;18.620;2023-01-01T04:41:56;415.98;;;181.68;;
36415;SDS011;22447;44.530;18.620;2023-01-01T04:44:25;477.75;;;213.82;;
36415;SDS011;22447;44.530;18.620;2023-01-01T04:54:44;442.98;;;191.02;;
36415;SDS011;22447;44.530;18.620;2023-01-01T04:57:12;392.15;;;174.90;;
36415;SDS011;22447;44.530;18.620;2023-01-01T04:59:38;364.65;;;169.68;;
36415;SDS011;22447;44.530;18.620;2023-01-01T05:02:05;354.83;;;159.30;;
36415;SDS011;22447;44.530;18.620;2023-01-01T05:04:32;350.88;;;162.85;;
36415;SDS011;22447;44.530;18.620;2023-01-01T05:07:08;404.88;;;190.55;;
36415;SDS011;22447;44.530;18.620;2023-01-01T05:09:45;416.75;;;192.05;;
36415;SDS011;22447;44.530;18.620;2023-01-01T05:12:11;468.05;;;220.65;;
36415;SDS011;22447;44.530;18.620;2023-01-01T05:14:38;484.85;;;227.85;;
36415;SDS011;22447;44.530;18.620;2023-01-01T05:17:04;518.92;;;252.50;;
36415;SDS011;22447;44.530;18.620;2023-01-01T05:19:30;430.65;;;200.73;;
36415;SDS011;22447;44.530;18.620;2023-01-01T05:21:56;389.23;;;180.07;;
36415;SDS011;22447;44.530;18.620;2023-01-01T05:24:22;342.63;;;158.52;;
36415;SDS011;22447;44.530;18.620;2023-01-01T05:26:48;301.23;;;139.15;;
36415;SDS011;22447;44.530;18.620;2023-01-01T05:29:15;293.02;;;137.30;;
36415;SDS011;22447;44.530;18.620;2023-01-01T05:31:42;289.92;;;132.35;;
36415;SDS011;22447;44.530;18.620;2023-01-01T05:34:09;276.00;;;131.40;;
36415;SDS011;22447;44.530;18.620;2023-01-01T05:36:35;271.02;;;130.40;;
36415;SDS011;22447;44.530;18.620;2023-01-01T05:39:02;234.07;;;112.82;;
36415;SDS011;22447;44.530;18.620;2023-01-01T05:41:32;240.50;;;115.63;;
36415;SDS011;22447;44.530;18.620;2023-01-01T05:44:06;225.43;;;108.05;;
36415;SDS011;22447;44.530;18.620;2023-01-01T05:46:34;227.02;;;109.97;;
36415;SDS011;22447;44.530;18.620;2023-01-01T05:49:03;233.35;;;109.90;;
36415;SDS011;22447;44.530;18.620;2023-01-01T05:51:30;229.07;;;115.03;;
36415;SDS011;22447;44.530;18.620;2023-01-01T05:53:59;255.90;;;125.65;;
36415;SDS011;22447;44.530;18.620;2023-01-01T05:56:26;238.65;;;116.50;;
36415;SDS011;22447;44.530;18.620;2023-01-01T05:58:54;244.85;;;115.80;;
36415;SDS011;22447;44.530;18.620;2023-01-01T06:01:22;193.45;;;94.63;;
36415;SDS011;22447;44.530;18.620;2023-01-01T06:03:50;196.35;;;98.82;;
36415;SDS011;22447;44.530;18.620;2023-01-01T06:06:18;176.90;;;88.88;;
36415;SDS011;22447;44.530;18.620;2023-01-01T06:08:55;168.20;;;83.78;;
36415;SDS011;22447;44.530;18.620;2023-01-01T06:18:20;189.07;;;90.38;;
36415;SDS011;22447;44.530;18.620;2023-01-01T06:24:47;201.02;;;91.03;;
36415;SDS011;22447;44.530;18.620;2023-01-01T06:34:33;186.10;;;89.07;;
36415;SDS011;22447;44.530;18.620;2023-01-01T06:37:24;181.20;;;86.38;;
36415;SDS011;22447;44.530;18.620;2023-01-01T06:43:56;184.88;;;89.25;;
36415;SDS011;22447;44.530;18.620;2023-01-01T06:54:21;169.02;;;79.50;;
36415;SDS011;22447;44.530;18.620;2023-01-01T06:56:51;161.87;;;78.47;;
36415;SDS011;22447;44.530;18.620;2023-01-01T06:59:25;159.00;;;77.63;;
36415;SDS011;22447;44.530;18.620;2023-01-01T07:05:45;163.68;;;81.13;;
36415;SDS011;22447;44.530;18.620;2023-01-01T07:08:12;175.68;;;85.22;;
36415;SDS011;22447;44.530;18.620;2023-01-01T07:10:59;161.00;;;77.38;;
36415;SDS011;22447;44.530;18.620;2023-01-01T07:13:40;156.95;;;77.57;;
36415;SDS011;22447;44.530;18.620;2023-01-01T07:27:42;165.27;;;83.57;;
36415;SDS011;22447;44.530;18.620;2023-01-01T07:33:04;191.02;;;95.95;;
36415;SDS011;22447;44.530;18.620;2023-01-01T07:48:00;202.88;;;102.30;;
36415;SDS011;22447;44.530;18.620;2023-01-01T07:50:32;195.32;;;100.05;;
36415;SDS011;22447;44.530;18.620;2023-01-01T07:52:58;192.63;;;102.70;;
36415;SDS011;22447;44.530;18.620;2023-01-01T07:55:29;192.98;;;100.03;;
36415;SDS011;22447;44.530;18.620;2023-01-01T08:01:55;177.88;;;92.15;;
36415;SDS011;22447;44.530;18.620;2023-01-01T08:11:25;218.52;;;114.82;;
36415;SDS011;22447;44.530;18.620;2023-01-01T08:17:23;228.27;;;123.63;;
36415;SDS011;22447;44.530;18.620;2023-01-01T08:31:19;183.95;;;104.70;;
36415;SDS011;22447;44.530;18.620;2023-01-01T08:34:55;169.20;;;96.60;;
36415;SDS011;22447;44.530;18.620;2023-01-01T08:41:00;183.35;;;105.28;;
36415;SDS011;22447;44.530;18.620;2023-01-01T08:43:30;170.13;;;99.03;;
36415;SDS011;22447;44.530;18.620;2023-01-01T08:46:01;161.00;;;95.30;;
36415;SDS011;22447;44.530;18.620;2023-01-01T08:48:43;158.65;;;94.60;;
36415;SDS011;22447;44.530;18.620;2023-01-01T08:55:09;153.70;;;92.25;;
36415;SDS011;22447;44.530;18.620;2023-01-01T08:57:38;150.85;;;92.15;;
36415;SDS011;22447;44.530;18.620;2023-01-01T09:00:07;156.70;;;96.07;;
36415;SDS011;22447;44.530;18.620;2023-01-01T09:06:31;141.77;;;87.47;;
36415;SDS011;22447;44.530;18.620;2023-01-01T09:09:00;137.93;;;86.80;;
36415;SDS011;22447;44.530;18.620;2023-01-01T09:11:26;137.60;;;83.97;;
36415;SDS011;22447;44.530;18.620;2023-01-01T09:13:56;128.55;;;80.78;;
36415;SDS011;22447;44.530;18.620;2023-01-01T09:16:23;138.43;;;84.53;;
36415;SDS011;22447;44.530;18.620;2023-01-01T09:18:51;130.13;;;79.55;;
36415;SDS011;22447;44.530;18.620;2023-01-01T09:21:18;120.75;;;73.90;;
36415;SDS011;22447;44.530;18.620;2023-01-01T09:28:03;119.05;;;73.90;;
36415;SDS011;22447;44.530;18.620;2023-01-01T09:30:35;120.25;;;72.40;;
36415;SDS011;22447;44.530;18.620;2023-01-01T09:33:15;116.65;;;68.88;;
36415;SDS011;22447;44.530;18.620;2023-01-01T09:35:43;105.43;;;65.65;;
36415;SDS011;22447;44.530;18.620;2023-01-01T09:38:15;87.57;;;53.00;;
36415;SDS011;22447;44.530;18.620;2023-01-01T09:50:12;68.72;;;41.60;;
36415;SDS011;22447;44.530;18.620;2023-01-01T09:53:06;80.13;;;47.20;;
36415;SDS011;22447;44.530;18.620;2023-01-01T09:55:53;79.88;;;50.65;;
36415;SDS011;22447;44.530;18.620;2023-01-01T09:59:45;83.57;;;50.45;;
36415;SDS011;22447;44.530;18.620;2023-01-01T10:07:54;96.97;;;58.38;;
36415;SDS011;22447;44.530;18.620;2023-01-01T10:14:30;100.43;;;64.80;;
36415;SDS011;22447;44.530;18.620;2023-01-01T10:17:01;103.30;;;64.43;;
36415;SDS011;22447;44.530;18.620;2023-01-01T10:19:44;98.78;;;61.55;;
36415;SDS011;22447;44.530;18.620;2023-01-01T10:22:32;100.53;;;64.35;;
36415;SDS011;22447;44.530;18.620;2023-01-01T10:29:21;107.53;;;63.80;;
36415;SDS011;22447;44.530;18.620;2023-01-01T10:31:57;107.30;;;66.75;;
36415;SDS011;22447;44.530;18.620;2023-01-01T10:38:46;110.53;;;68.30;;
36415;SDS011;22447;44.530;18.620;2023-01-01T10:41:14;96.18;;;61.83;;
36415;SDS011;22447;44.530;18.620;2023-01-01T10:43:48;89.13;;;56.22;;
36415;SDS011;22447;44.530;18.620;2023-01-01T10:46:21;86.65;;;52.25;;
36415;SDS011;22447;44.530;18.620;2023-01-01T10:49:08;85.95;;;53.60;;
36415;SDS011;22447;44.530;18.620;2023-01-01T10:51:43;76.72;;;49.25;;
36415;SDS011;22447;44.530;18.620;2023-01-01T11:00:59;67.82;;;43.25;;
36415;SDS011;22447;44.530;18.620;2023-01-01T11:06:41;50.97;;;30.30;;
36415;SDS011;22447;44.530;18.620;2023-01-01T11:09:26;45.33;;;28.23;;
36415;SDS011;22447;44.530;18.620;2023-01-01T11:15:51;49.40;;;32.67;;
36415;SDS011;22447;44.530;18.620;2023-01-01T11:21:20;36.33;;;21.30;;
36415;SDS011;22447;44.530;18.620;2023-01-01T11:31:20;28.90;;;19.10;;
36415;SDS011;22447;44.530;18.620;2023-01-01T11:34:26;29.38;;;20.33;;
36415;SDS011;22447;44.530;18.620;2023-01-01T11:40:43;32.70;;;20.23;;
36415;SDS011;22447;44.530;18.620;2023-01-01T11:43:20;41.55;;;21.88;;
36415;SDS011;22447;44.530;18.620;2023-01-01T11:45:54;40.60;;;22.60;;
36415;SDS011;22447;44.530;18.620;2023-01-01T11:48:27;39.67;;;22.58;;
36415;SDS011;22447;44.530;18.620;2023-01-01T11:51:08;34.73;;;23.03;;
36415;SDS011;22447;44.530;18.620;2023-01-01T11:53:52;36.17;;;21.98;;
36415;SDS011;22447;44.530;18.620;2023-01-01T11:56:46;38.72;;;22.23;;
36415;SDS011;22447;44.530;18.620;2023-01-01T11:59:16;36.65;;;21.90;;
36415;SDS011;22447;44.530;18.620;2023-01-01T12:01:48;41.20;;;24.48;;
36415;SDS011;22447;44.530;18.620;2023-01-01T12:07:10;41.35;;;24.75;;
36415;SDS011;22447;44.530;18.620;2023-01-01T12:12:49;38.70;;;25.80;;
36415;SDS011;22447;44.530;18.620;2023-01-01T12:15:26;38.53;;;24.90;;
36415;SDS011;22447;44.530;18.620;2023-01-01T12:18:12;39.53;;;26.63;;
36415;SDS011;22447;44.530;18.620;2023-01-01T12:23:35;48.70;;;28.60;;
36415;SDS011;22447;44.530;18.620;2023-01-01T12:29:09;31.83;;;19.92;;
36415;SDS011;22447;44.530;18.620;2023-01-01T12:31:52;52.75;;;33.65;;
36415;SDS011;22447;44.530;18.620;2023-01-01T12:34:59;63.05;;;39.45;;
36415;SDS011;22447;44.530;18.620;2023-01-01T12:41:07;68.18;;;38.58;;
36415;SDS011;22447;44.530;18.620;2023-01-01T12:43:44;71.25;;;41.63;;
36415;SDS011;22447;44.530;18.620;2023-01-01T12:58:36;65.72;;;38.17;;
36415;SDS011;22447;44.530;18.620;2023-01-01T13:05:34;62.75;;;34.72;;
36415;SDS011;22447;44.530;18.620;2023-01-01T13:14:47;65.78;;;33.75;;
36415;SDS011;22447;44.530;18.620;2023-01-01T13:17:28;61.97;;;31.45;;
36415;SDS011;22447;44.530;18.620;2023-01-01T13:20:15;58.85;;;29.60;;
36415;SDS011;22447;44.530;18.620;2023-01-01T13:22:52;61.08;;;29.60;;
36415;SDS011;22447;44.530;18.620;2023-01-01T13:25:24;65.97;;;31.55;;
36415;SDS011;22447;44.530;18.620;2023-01-01T13:51:44;65.10;;;34.47;;
36415;SDS011;22447;44.530;18.620;2023-01-01T14:03:42;79.85;;;42.50;;
36415;SDS011;22447;44.530;18.620;2023-01-01T14:06:33;66.38;;;36.50;;
36415;SDS011;22447;44.530;18.620;2023-01-01T14:11:34;62.53;;;32.50;;
36415;SDS011;22447;44.530;18.620;2023-01-01T14:14:00;56.50;;;30.23;;
36415;SDS011;22447;44.530;18.620;2023-01-01T14:16:26;48.47;;;26.35;;
36415;SDS011;22447;44.530;18.620;2023-01-01T14:18:54;48.13;;;25.05;;
36415;SDS011;22447;44.530;18.620;2023-01-01T14:21:24;42.83;;;24.13;;
36415;SDS011;22447;44.530;18.620;2023-01-01T14:23:57;47.30;;;22.52;;
36415;SDS011;22447;44.530;18.620;2023-01-01T14:26:26;102.65;;;47.40;;
36415;SDS011;22447;44.530;18.620;2023-01-01T14:28:55;136.25;;;64.72;;
36415;SDS011;22447;44.530;18.620;2023-01-01T14:31:28;154.40;;;72.47;;
36415;SDS011;22447;44.530;18.620;2023-01-01T14:36:27;195.10;;;94.55;;
36415;SDS011;22447;44.530;18.620;2023-01-01T14:38:55;182.50;;;92.20;;
36415;SDS011;22447;44.530;18.620;2023-01-01T14:41:28;169.68;;;80.35;;
36415;SDS011;22447;44.530;18.620;2023-01-01T14:44:09;171.15;;;84.50;;
36415;SDS011;22447;44.530;18.620;2023-01-01T14:46:45;144.23;;;74.57;;
36415;SDS011;22447;44.530;18.620;2023-01-01T14:49:17;138.45;;;66.20;;
36415;SDS011;22447;44.530;18.620;2023-01-01T14:52:39;118.13;;;58.55;;
36415;SDS011;22447;44.530;18.620;2023-01-01T14:54:51;127.68;;;62.45;;
36415;SDS011;22447;44.530;18.620;2023-01-01T14:57:20;151.05;;;72.82;;
36415;SDS011;22447;44.530;18.620;2023-01-01T14:59:51;148.35;;;74.35;;
36415;SDS011;22447;44.530;18.620;2023-01-01T15:02:24;153.00;;;75.72;;
36415;SDS011;22447;44.530;18.620;2023-01-01T15:04:53;119.50;;;58.00;;
36415;SDS011;22447;44.530;18.620;2023-01-01T15:09:45;101.72;;;48.83;;
36415;SDS011;22447;44.530;18.620;2023-01-01T15:12:12;92.88;;;46.10;;
36415;SDS011;22447;44.530;18.620;2023-01-01T15:14:46;89.13;;;46.03;;
36415;SDS011;22447;44.530;18.620;2023-01-01T15:17:43;83.38;;;41.95;;
36415;SDS011;22447;44.530;18.620;2023-01-01T15:20:18;90.88;;;47.45;;
36415;SDS011;22447;44.530;18.620;2023-01-01T15:22:46;132.38;;;63.30;;
36415;SDS011;22447;44.530;18.620;2023-01-01T15:25:13;111.10;;;53.90;;
36415;SDS011;22447;44.530;18.620;2023-01-01T15:27:41;96.45;;;44.28;;
36415;SDS011;22447;44.530;18.620;2023-01-01T15:30:25;112.78;;;56.65;;
36415;SDS011;22447;44.530;18.620;2023-01-01T15:33:07;81.75;;;39.13;;
36415;SDS011;22447;44.530;18.620;2023-01-01T15:35:38;112.63;;;54.33;;
36415;SDS011;22447;44.530;18.620;2023-01-01T15:38:38;107.32;;;51.63;;
36415;SDS011;22447;44.530;18.620;2023-01-01T15:40:59;76.75;;;39.63;;
36415;SDS011;22447;44.530;18.620;2023-01-01T15:49:45;355.58;;;129.13;;
36415;SDS011;22447;44.530;18.620;2023-01-01T15:52:22;378.17;;;145.48;;
36415;SDS011;22447;44.530;18.620;2023-01-01T15:54:54;312.70;;;121.50;;
36415;SDS011;22447;44.530;18.620;2023-01-01T15:57:21;160.02;;;73.03;;
36415;SDS011;22447;44.530;18.620;2023-01-01T15:59:49;131.38;;;64.03;;
36415;SDS011;22447;44.530;18.620;2023-01-01T16:02:26;133.45;;;67.78;;
36415;SDS011;22447;44.530;18.620;2023-01-01T16:04:56;116.55;;;57.83;;
36415;SDS011;22447;44.530;18.620;2023-01-01T16:07:27;106.55;;;54.75;;
36415;SDS011;22447;44.530;18.620;2023-01-01T16:10:16;95.93;;;50.80;;
36415;SDS011;22447;44.530;18.620;2023-01-01T16:12:44;125.45;;;62.58;;
36415;SDS011;22447;44.530;18.620;2023-01-01T16:19:13;120.07;;;62.00;;
36415;SDS011;22447;44.530;18.620;2023-01-01T16:22:24;200.13;;;90.55;;
36415;SDS011;22447;44.530;18.620;2023-01-01T16:24:52;230.98;;;103.97;;
36415;SDS011;22447;44.530;18.620;2023-01-01T16:28:14;214.68;;;92.80;;
36415;SDS011;22447;44.530;18.620;2023-01-01T16:33:41;243.63;;;105.95;;
36415;SDS011;22447;44.530;18.620;2023-01-01T16:36:10;290.77;;;126.80;;
36415;SDS011;22447;44.530;18.620;2023-01-01T16:38:46;284.85;;;116.88;;
36415;SDS011;22447;44.530;18.620;2023-01-01T16:41:13;203.80;;;90.35;;
36415;SDS011;22447;44.530;18.620;2023-01-01T16:43:45;173.88;;;79.63;;
36415;SDS011;22447;44.530;18.620;2023-01-01T16:50:29;222.35;;;113.45;;
36415;SDS011;22447;44.530;18.620;2023-01-01T16:52:58;187.48;;;95.63;;
36415;SDS011;22447;44.530;18.620;2023-01-01T16:55:26;203.07;;;100.32;;
36415;SDS011;22447;44.530;18.620;2023-01-01T17:01:50;194.43;;;97.18;;
36415;SDS011;22447;44.530;18.620;2023-01-01T17:04:19;187.07;;;89.07;;
36415;SDS011;22447;44.530;18.620;2023-01-01T17:06:52;218.80;;;107.03;;
36415;SDS011;22447;44.530;18.620;2023-01-01T17:09:24;247.13;;;120.72;;
36415;SDS011;22447;44.530;18.620;2023-01-01T17:12:03;283.60;;;142.38;;
36415;SDS011;22447;44.530;18.620;2023-01-01T17:14:33;259.05;;;130.20;;
36415;SDS011;22447;44.530;18.620;2023-01-01T17:17:02;231.45;;;114.95;;
36415;SDS011;22447;44.530;18.620;2023-01-01T17:20:24;278.10;;;140.77;;
36415;SDS011;22447;44.530;18.620;2023-01-01T17:22:52;328.45;;;163.35;;
36415;SDS011;22447;44.530;18.620;2023-01-01T17:25:19;325.30;;;158.05;;
36415;SDS011;22447;44.530;18.620;2023-01-01T17:27:47;403.67;;;205.98;;
36415;SDS011;22447;44.530;18.620;2023-01-01T17:30:20;243.93;;;120.88;;
36415;SDS011;22447;44.530;18.620;2023-01-01T17:32:48;219.50;;;110.07;;
36415;SDS011;22447;44.530;18.620;2023-01-01T17:35:15;240.75;;;117.68;;
36415;SDS011;22447;44.530;18.620;2023-01-01T17:37:46;259.95;;;125.20;;
36415;SDS011;22447;44.530;18.620;2023-01-01T17:40:13;217.38;;;103.35;;
36415;SDS011;22447;44.530;18.620;2023-01-01T17:42:45;210.40;;;102.65;;
36415;SDS011;22447;44.530;18.620;2023-01-01T17:45:12;222.68;;;105.68;;
36415;SDS011;22447;44.530;18.620;2023-01-01T17:48:31;249.80;;;121.00;;
36415;SDS011;22447;44.530;18.620;2023-01-01T17:54:58;195.40;;;96.18;;
36415;SDS011;22447;44.530;18.620;2023-01-01T17:57:57;168.15;;;83.28;;
36415;SDS011;22447;44.530;18.620;2023-01-01T18:07:00;251.98;;;119.65;;
36415;SDS011;22447;44.530;18.620;2023-01-01T18:09:27;204.18;;;102.50;;
36415;SDS011;22447;44.530;18.620;2023-01-01T18:11:59;228.48;;;110.43;;
36415;SDS011;22447;44.530;18.620;2023-01-01T18:14:26;193.52;;;94.97;;
36415;SDS011;22447;44.530;18.620;2023-01-01T18:16:54;250.15;;;123.53;;
36415;SDS011;22447;44.530;18.620;2023-01-01T18:19:28;225.80;;;107.85;;
36415;SDS011;22447;44.530;18.620;2023-01-01T18:21:54;264.88;;;127.05;;
36415;SDS011;22447;44.530;18.620;2023-01-01T18:24:23;186.90;;;94.80;;
36415;SDS011;22447;44.530;18.620;2023-01-01T18:26:54;208.35;;;99.40;;
36415;SDS011;22447;44.530;18.620;2023-01-01T18:29:21;322.92;;;156.85;;
36415;SDS011;22447;44.530;18.620;2023-01-01T18:31:58;316.50;;;148.30;;
36415;SDS011;22447;44.530;18.620;2023-01-01T18:34:29;313.35;;;145.82;;
36415;SDS011;22447;44.530;18.620;2023-01-01T18:48:32;302.15;;;142.02;;
36415;SDS011;22447;44.530;18.620;2023-01-01T18:52:16;285.08;;;138.40;;
36415;SDS011;22447;44.530;18.620;2023-01-01T18:58:13;370.52;;;171.55;;
36415;SDS011;22447;44.530;18.620;2023-01-01T19:00:50;365.08;;;177.27;;
36415;SDS011;22447;44.530;18.620;2023-01-01T19:03:21;337.25;;;160.93;;
36415;SDS011;22447;44.530;18.620;2023-01-01T19:05:55;391.88;;;185.48;;
36415;SDS011;22447;44.530;18.620;2023-01-01T19:08:25;358.95;;;172.57;;
36415;SDS011;22447;44.530;18.620;2023-01-01T19:10:58;369.98;;;178.40;;
36415;SDS011;22447;44.530;18.620;2023-01-01T19:13:34;355.58;;;166.48;;
36415;SDS011;22447;44.530;18.620;2023-01-01T19:23:59;491.50;;;243.63;;
36415;SDS011;22447;44.530;18.620;2023-01-01T19:26:39;485.33;;;242.32;;
36415;SDS011;22447;44.530;18.620;2023-01-01T19:32:25;416.67;;;203.73;;
36415;SDS011;22447;44.530;18.620;2023-01-01T19:34:52;414.33;;;200.35;;
36415;SDS011;22447;44.530;18.620;2023-01-01T19:37:26;431.02;;;211.35;;
36415;SDS011;22447;44.530;18.620;2023-01-01T19:42:49;462.98;;;228.48;;
36415;SDS011;22447;44.530;18.620;2023-01-01T19:54:51;346.15;;;163.40;;
36415;SDS011;22447;44.530;18.620;2023-01-01T19:57:27;319.45;;;153.77;;
36415;SDS011;22447;44.530;18.620;2023-01-01T19:59:53;338.90;;;166.10;;
36415;SDS011;22447;44.530;18.620;2023-01-01T20:02:22;355.45;;;169.77;;
36415;SDS011;22447;44.530;18.620;2023-01-01T20:04:48;366.90;;;183.80;;
36415;SDS011;22447;44.530;18.620;2023-01-01T20:07:14;370.13;;;175.77;;
36415;SDS011;22447;44.530;18.620;2023-01-01T20:09:46;355.17;;;177.05;;
36415;SDS011;22447;44.530;18.620;2023-01-01T20:20:12;431.55;;;204.43;;
36415;SDS011;22447;44.530;18.620;2023-01-01T20:22:39;457.08;;;220.35;;
36415;SDS011;22447;44.530;18.620;2023-01-01T20:25:06;405.10;;;197.00;;
36415;SDS011;22447;44.530;18.620;2023-01-01T20:27:54;420.50;;;207.40;;
36415;SDS011;22447;44.530;18.620;2023-01-01T20:30:41;408.25;;;195.93;;
36415;SDS011;22447;44.530;18.620;2023-01-01T20:33:18;385.25;;;184.57;;
36415;SDS011;22447;44.530;18.620;2023-01-01T20:35:45;387.67;;;191.93;;
36415;SDS011;22447;44.530;18.620;2023-01-01T20:38:29;397.13;;;188.57;;
36415;SDS011;22447;44.530;18.620;2023-01-01T20:40:55;453.85;;;220.32;;
36415;SDS011;22447;44.530;18.620;2023-01-01T20:43:43;395.60;;;192.02;;
36415;SDS011;22447;44.530;18.620;2023-01-01T20:46:11;402.08;;;201.68;;
36415;SDS011;22447;44.530;18.620;2023-01-01T20:48:37;418.45;;;210.18;;
36415;SDS011;22447;44.530;18.620;2023-01-01T20:51:03;388.17;;;190.35;;
36415;SDS011;22447;44.530;18.620;2023-01-01T20:53:30;382.77;;;187.63;;
36415;SDS011;22447;44.530;18.620;2023-01-01T20:55:56;434.63;;;212.77;;
36415;SDS011;22447;44.530;18.620;2023-01-01T20:58:22;398.65;;;189.55;;
36415;SDS011;22447;44.530;18.620;2023-01-01T21:00:48;378.17;;;182.25;;
36415;SDS011;22447;44.530;18.620;2023-01-01T21:03:15;347.50;;;167.73;;
36415;SDS011;22447;44.530;18.620;2023-01-01T21:05:41;355.33;;;169.30;;
36415;SDS011;22447;44.530;18.620;2023-01-01T21:08:08;365.25;;;174.95;;